Time;durP1;ratioP1;P1;durP2;ratioP2;P2;SDS_P1;SDS_P2;PMS_P1;PMS_P2;Temp;Humidity;BMP_temperature;BMP_pressure;BME280_temperature;BME280_humidity;BME280_pressure;Samples;Min_cycle;Max_cycle;Signal;HPM_P1;HPM_P2
2024/01/15 00:00:10;;;;;;;57.73;21.57;;;;;;;;;;5016331;28;20295;-91
2024/01/15 00:02:36;;;;;;;63.30;23.20;;;;;;;;;;5008554;28;20596;-91
2024/01/15 00:05:02;;;;;;;64.90;22.77;;;;;;;;;;5009309;28;20285;-92
2024/01/15 00:07:28;;;;;;;69.17;24.23;;;;;;;;;;5038611;28;20056;-90
2024/01/15 00:09:54;;;;;;;65.27;22.60;;;;;;;;;;5022366;28;20620;-89
2024/01/15 00:12:20;;;;;;;67.27;24.33;;;;;;;;;;5009389;28;20036;-92
2024/01/15 00:14:46;;;;;;;69.73;22.67;;;;;;;;;;5022177;28;20036;-90
2024/01/15 00:17:12;;;;;;;74.43;24.03;;;;;;;;;;5019134;28;20261;-90
2024/01/15 00:19:38;;;;;;;68.07;23.90;;;;;;;;;;5009818;28;20033;-85
2024/01/15 00:22:04;;;;;;;73.27;25.03;;;;;;;;;;5027063;28;20350;-87
2024/01/15 00:24:30;;;;;;;75.97;25.53;;;;;;;;;;5014603;28;20284;-88
2024/01/15 00:26:56;;;;;;;75.23;24.30;;;;;;;;;;5025595;28;20457;-85
2024/01/15 00:29:22;;;;;;;77.70;25.83;;;;;;;;;;5009983;28;20040;-84
2024/01/15 00:31:48;;;;;;;77.10;24.10;;;;;;;;;;5012331;28;20277;-88
2024/01/15 00:34:14;;;;;;;72.23;24.23;;;;;;;;;;5008499;28;20037;-85
2024/01/15 00:36:40;;;;;;;72.20;23.60;;;;;;;;;;5007690;28;20284;-87
2024/01/15 00:39:06;;;;;;;74.17;25.07;;;;;;;;;;5012170;28;20037;-89
2024/01/15 00:41:33;;;;;;;82.13;25.57;;;;;;;;;;5025075;28;20280;-87
2024/01/15 00:43:59;;;;;;;91.90;25.00;;;;;;;;;;5022625;28;20754;-87
2024/01/15 00:46:27;;;;;;;79.03;25.63;;;;;;;;;;5007697;28;20304;-89
2024/01/15 00:48:53;;;;;;;96.07;26.40;;;;;;;;;;5024176;28;20105;-87
2024/01/15 00:51:19;;;;;;;87.87;26.27;;;;;;;;;;5026558;28;20276;-90
2024/01/15 00:53:45;;;;;;;99.63;27.80;;;;;;;;;;5007484;28;20265;-89
2024/01/15 00:56:13;;;;;;;87.77;28.70;;;;;;;;;;5008984;28;20292;-89
2024/01/15 00:58:39;;;;;;;95.00;31.23;;;;;;;;;;5011272;28;20040;-88
2024/01/15 01:01:05;;;;;;;88.27;27.60;;;;;;;;;;5008217;28;20272;-88
2024/01/15 01:03:31;;;;;;;105.67;28.20;;;;;;;;;;5024071;28;20034;-88
2024/01/15 01:05:57;;;;;;;85.40;29.00;;;;;;;;;;5007328;28;20108;-90
2024/01/15 01:08:26;;;;;;;85.83;27.60;;;;;;;;;;5007772;28;21750;-86
2024/01/15 01:10:52;;;;;;;97.73;29.77;;;;;;;;;;5006807;28;20347;-83
2024/01/15 01:13:18;;;;;;;92.47;28.13;;;;;;;;;;5007733;28;20351;-86
2024/01/15 01:15:44;;;;;;;89.17;27.70;;;;;;;;;;5007369;28;20029;-89
2024/01/15 01:18:10;;;;;;;93.73;30.53;;;;;;;;;;5009406;28;20033;-86
2024/01/15 01:20:36;;;;;;;98.50;30.60;;;;;;;;;;5008802;28;21738;-87
2024/01/15 01:23:05;;;;;;;96.13;29.50;;;;;;;;;;5009127;28;20034;-88
2024/01/15 01:25:30;;;;;;;100.13;29.07;;;;;;;;;;5009602;28;20057;-84
2024/01/15 01:27:56;;;;;;;95.93;30.03;;;;;;;;;;5009093;28;20681;-91
2024/01/15 01:30:24;;;;;;;108.80;30.03;;;;;;;;;;5009735;28;20092;-88
2024/01/15 01:32:50;;;;;;;102.77;28.53;;;;;;;;;;5023237;28;20292;-84
2024/01/15 01:35:16;;;;;;;98.87;30.63;;;;;;;;;;5025584;28;20032;-91
2024/01/15 01:37:42;;;;;;;91.63;29.97;;;;;;;;;;5005543;28;20036;-85
2024/01/15 01:40:08;;;;;;;96.53;31.57;;;;;;;;;;5006797;28;20029;-90
2024/01/15 01:42:34;;;;;;;87.43;29.90;;;;;;;;;;5023169;28;20092;-91
2024/01/15 01:45:00;;;;;;;112.03;33.07;;;;;;;;;;5008614;28;20300;-92
2024/01/15 01:47:29;;;;;;;99.77;31.60;;;;;;;;;;5009136;28;20641;-84
2024/01/15 01:49:55;;;;;;;95.90;30.57;;;;;;;;;;5022656;28;20025;-87
2024/01/15 01:52:21;;;;;;;101.43;32.17;;;;;;;;;;5005999;28;20283;-86
2024/01/15 01:54:47;;;;;;;94.73;30.87;;;;;;;;;;5024205;28;20299;-88
2024/01/15 01:57:13;;;;;;;105.80;34.03;;;;;;;;;;5009120;28;20272;-92
2024/01/15 01:59:43;;;;;;;93.60;30.47;;;;;;;;;;5025992;28;20304;-85
2024/01/15 02:02:09;;;;;;;98.43;27.03;;;;;;;;;;5023529;28;20340;-83
2024/01/15 02:04:38;;;;;;;99.77;28.53;;;;;;;;;;5022773;28;20395;-84
2024/01/15 02:07:04;;;;;;;87.47;27.17;;;;;;;;;;5006513;28;20021;-90
2024/01/15 02:09:31;;;;;;;89.07;26.90;;;;;;;;;;5005695;28;20287;-87
2024/01/15 02:11:57;;;;;;;103.77;29.20;;;;;;;;;;5005714;28;20338;-86
2024/01/15 02:14:24;;;;;;;80.30;27.37;;;;;;;;;;5005040;28;20268;-88
2024/01/15 02:16:50;;;;;;;90.70;27.80;;;;;;;;;;5022371;28;21906;-87
2024/01/15 02:19:17;;;;;;;87.97;30.27;;;;;;;;;;5004946;28;20400;-88
2024/01/15 02:21:43;;;;;;;101.97;31.27;;;;;;;;;;5009348;28;20343;-84
2024/01/15 02:24:09;;;;;;;91.80;31.00;;;;;;;;;;5008844;28;20311;-91
2024/01/15 02:26:38;;;;;;;95.00;29.27;;;;;;;;;;5006857;28;20386;-88
2024/01/15 02:29:05;;;;;;;84.03;27.47;;;;;;;;;;5022453;28;20280;-86
2024/01/15 02:31:30;;;;;;;96.60;29.50;;;;;;;;;;5007385;28;20281;-87
2024/01/15 02:33:56;;;;;;;99.23;32.73;;;;;;;;;;5020185;28;21703;-88
2024/01/15 02:36:25;;;;;;;86.50;28.50;;;;;;;;;;5025794;28;20045;-85
2024/01/15 02:38:51;;;;;;;86.40;29.73;;;;;;;;;;5003861;28;20045;-86
2024/01/15 02:41:17;;;;;;;101.27;30.07;;;;;;;;;;5006876;28;20283;-87
2024/01/15 02:43:43;;;;;;;95.07;29.33;;;;;;;;;;5008250;28;20312;-84
2024/01/15 02:46:09;;;;;;;81.20;28.43;;;;;;;;;;5007043;28;20307;-86
2024/01/15 02:48:35;;;;;;;95.90;26.33;;;;;;;;;;5009636;28;20284;-85
2024/01/15 02:51:02;;;;;;;71.07;26.47;;;;;;;;;;5008530;28;20033;-85
2024/01/15 02:53:28;;;;;;;84.90;29.60;;;;;;;;;;5022145;28;20029;-88
2024/01/15 02:55:54;;;;;;;78.30;25.57;;;;;;;;;;5023143;28;20346;-90
2024/01/15 02:58:20;;;;;;;85.03;28.40;;;;;;;;;;5007401;28;20034;-88
2024/01/15 03:00:46;;;;;;;99.43;27.73;;;;;;;;;;5007597;28;20786;-87
2024/01/15 03:03:12;;;;;;;88.40;26.20;;;;;;;;;;5010003;28;20355;-89
2024/01/15 03:05:38;;;;;;;84.17;27.43;;;;;;;;;;5009947;28;20346;-87
2024/01/15 03:08:07;;;;;;;78.70;26.93;;;;;;;;;;5026863;28;20274;-87
2024/01/15 03:10:32;;;;;;;80.63;26.50;;;;;;;;;;5011391;28;20268;-91
2024/01/15 03:12:58;;;;;;;86.63;29.30;;;;;;;;;;5011111;28;20624;-88
2024/01/15 03:15:24;;;;;;;76.37;26.87;;;;;;;;;;5025810;28;20042;-85
2024/01/15 03:17:50;;;;;;;81.87;27.03;;;;;;;;;;5026238;28;20391;-90
2024/01/15 03:20:19;;;;;;;73.50;26.13;;;;;;;;;;5009972;28;20045;-91
2024/01/15 03:22:45;;;;;;;85.80;25.83;;;;;;;;;;5007150;28;20038;-91
2024/01/15 03:25:11;;;;;;;71.70;25.10;;;;;;;;;;5011054;28;20308;-90
2024/01/15 03:27:37;;;;;;;74.23;26.20;;;;;;;;;;5010065;28;21711;-87
2024/01/15 03:30:03;;;;;;;72.27;23.03;;;;;;;;;;5011206;28;20168;-87
2024/01/15 03:32:33;;;;;;;77.13;26.17;;;;;;;;;;5008227;28;20288;-90
2024/01/15 03:35:02;;;;;;;71.03;24.90;;;;;;;;;;5009153;28;20308;-88
2024/01/15 03:37:28;;;;;;;79.93;26.53;;;;;;;;;;5009801;28;20283;-87
2024/01/15 03:39:54;;;;;;;76.33;27.67;;;;;;;;;;5012300;28;20268;-88
2024/01/15 03:42:20;;;;;;;81.40;27.17;;;;;;;;;;5027158;28;20312;-91
2024/01/15 03:44:48;;;;;;;78.50;27.90;;;;;;;;;;5027456;28;20044;-88
2024/01/15 03:47:14;;;;;;;80.40;26.60;;;;;;;;;;5009710;28;20292;-89
2024/01/15 03:49:40;;;;;;;73.93;28.57;;;;;;;;;;5026879;28;20466;-93
2024/01/15 03:52:06;;;;;;;77.27;28.27;;;;;;;;;;5007836;28;20018;-89
2024/01/15 03:54:32;;;;;;;87.93;29.17;;;;;;;;;;5011633;28;20272;-84
2024/01/15 03:56:58;;;;;;;80.90;28.63;;;;;;;;;;5010726;28;20025;-91
2024/01/15 03:59:27;;;;;;;86.90;28.30;;;;;;;;;;5006730;28;20281;-84
2024/01/15 04:01:53;;;;;;;82.47;28.27;;;;;;;;;;5009391;28;20044;-87
2024/01/15 04:04:19;;;;;;;82.07;27.93;;;;;;;;;;5010455;28;20291;-84
2024/01/15 04:06:45;;;;;;;83.77;28.37;;;;;;;;;;5008927;28;20771;-88
2024/01/15 04:09:12;;;;;;;83.87;27.83;;;;;;;;;;5027163;28;20343;-91
2024/01/15 04:11:38;;;;;;;77.83;27.37;;;;;;;;;;5009187;28;20270;-92
2024/01/15 04:14:07;;;;;;;66.43;24.47;;;;;;;;;;5023860;28;20316;-86
2024/01/15 04:16:33;;;;;;;75.77;26.80;;;;;;;;;;5011746;28;20041;-87
2024/01/15 04:18:58;;;;;;;73.13;26.97;;;;;;;;;;5026765;28;20315;-84
2024/01/15 04:21:24;;;;;;;76.20;25.90;;;;;;;;;;5016373;28;20033;-87
2024/01/15 04:23:50;;;;;;;79.90;27.73;;;;;;;;;;5009523;28;20057;-90
2024/01/15 04:26:16;;;;;;;74.27;25.97;;;;;;;;;;5028125;28;20084;-88
2024/01/15 04:28:42;;;;;;;74.97;27.53;;;;;;;;;;5009185;28;20053;-91
2024/01/15 04:31:08;;;;;;;77.83;26.77;;;;;;;;;;5007267;28;20049;-88
2024/01/15 04:33:34;;;;;;;63.47;23.33;;;;;;;;;;5009106;28;20434;-90
2024/01/15 04:36:08;;;;;;;69.80;25.40;;;;;;;;;;5008719;28;20037;-86
2024/01/15 04:38:36;;;;;;;62.10;23.97;;;;;;;;;;5011030;28;20033;-92
2024/01/15 04:41:02;;;;;;;67.63;24.30;;;;;;;;;;5012189;28;20345;-89
2024/01/15 04:43:28;;;;;;;61.17;24.20;;;;;;;;;;5028029;28;20360;-92
2024/01/15 04:45:54;;;;;;;67.87;23.30;;;;;;;;;;5032998;28;20033;-89
2024/01/15 04:48:20;;;;;;;57.23;22.30;;;;;;;;;;5010412;28;20265;-91
2024/01/15 04:50:46;;;;;;;66.50;22.63;;;;;;;;;;5014073;28;20021;-91
2024/01/15 04:53:12;;;;;;;67.13;22.43;;;;;;;;;;5037540;28;20264;-92
2024/01/15 04:55:40;;;;;;;54.90;22.03;;;;;;;;;;5020674;28;20287;-93
2024/01/15 04:58:09;;;;;;;55.57;21.67;;;;;;;;;;5021079;28;20036;-92
2024/01/15 05:00:34;;;;;;;60.20;21.10;;;;;;;;;;5015659;28;20763;-89
2024/01/15 05:03:00;;;;;;;47.97;19.87;;;;;;;;;;5015004;28;20360;-92
2024/01/15 05:05:26;;;;;;;62.37;23.17;;;;;;;;;;5018168;28;20029;-91
2024/01/15 05:07:52;;;;;;;66.87;23.20;;;;;;;;;;5014707;28;20053;-91
2024/01/15 05:10:19;;;;;;;54.23;20.50;;;;;;;;;;5023054;28;20063;-92
2024/01/15 05:12:45;;;;;;;47.83;20.03;;;;;;;;;;5019373;28;20268;-92
2024/01/15 05:15:11;;;;;;;48.70;19.63;;;;;;;;;;5036904;28;20274;-89
2024/01/15 05:17:37;;;;;;;57.60;20.13;;;;;;;;;;5006784;28;20030;-85
2024/01/15 05:20:04;;;;;;;48.20;19.53;;;;;;;;;;5016127;28;20281;-93
2024/01/15 05:22:30;;;;;;;51.43;20.70;;;;;;;;;;5017236;28;20582;-91
2024/01/15 05:24:56;;;;;;;51.97;20.20;;;;;;;;;;5019218;28;20280;-91
2024/01/15 05:27:24;;;;;;;52.03;20.60;;;;;;;;;;5034209;28;20030;-92
2024/01/15 05:29:50;;;;;;;46.70;19.47;;;;;;;;;;5021909;28;20033;-93
2024/01/15 05:32:16;;;;;;;45.97;18.50;;;;;;;;;;5011540;28;20843;-90
2024/01/15 05:34:42;;;;;;;35.03;14.80;;;;;;;;;;5011074;28;20025;-89
2024/01/15 05:37:08;;;;;;;39.37;14.57;;;;;;;;;;5018686;28;20049;-89
2024/01/15 05:39:34;;;;;;;31.67;13.67;;;;;;;;;;5022203;28;20087;-92
2024/01/15 05:42:00;;;;;;;43.30;14.17;;;;;;;;;;5017771;28;20021;-89
2024/01/15 05:44:26;;;;;;;31.90;14.27;;;;;;;;;;5018858;28;20025;-91
2024/01/15 05:46:54;;;;;;;33.90;15.43;;;;;;;;;;5015608;28;20712;-92
2024/01/15 05:49:22;;;;;;;33.13;13.73;;;;;;;;;;5019118;28;20029;-91
2024/01/15 05:51:48;;;;;;;39.80;13.90;;;;;;;;;;5029896;28;20264;-92
2024/01/15 05:54:14;;;;;;;41.10;13.53;;;;;;;;;;5022164;28;20272;-92
2024/01/15 05:56:40;;;;;;;45.10;14.57;;;;;;;;;;5011107;28;20281;-93
2024/01/15 05:59:06;;;;;;;33.67;15.10;;;;;;;;;;5016228;28;20063;-92
2024/01/15 06:01:32;;;;;;;38.77;15.70;;;;;;;;;;5019063;28;20092;-89
2024/01/15 06:03:58;;;;;;;43.50;16.40;;;;;;;;;;5019558;28;20036;-92
2024/01/15 06:06:24;;;;;;;36.57;15.87;;;;;;;;;;5012217;28;20067;-93
2024/01/15 06:08:50;;;;;;;38.27;15.13;;;;;;;;;;5014505;28;20040;-93
2024/01/15 06:11:16;;;;;;;44.93;16.83;;;;;;;;;;5012813;28;20280;-92
2024/01/15 06:13:42;;;;;;;39.33;16.90;;;;;;;;;;5012264;28;20022;-93
2024/01/15 06:16:20;;;;;;;41.73;18.13;;;;;;;;;;5012231;28;20283;-90
2024/01/15 06:18:46;;;;;;;44.93;18.63;;;;;;;;;;5011298;28;20040;-92
2024/01/15 06:21:14;;;;;;;39.07;17.67;;;;;;;;;;5013463;28;20272;-93
2024/01/15 06:23:40;;;;;;;39.83;17.10;;;;;;;;;;5010132;28;20025;-91
2024/01/15 06:26:06;;;;;;;39.67;17.97;;;;;;;;;;5009129;28;20281;-92
2024/01/15 06:28:32;;;;;;;45.30;17.70;;;;;;;;;;5010442;28;20334;-92
2024/01/15 06:30:58;;;;;;;35.50;17.80;;;;;;;;;;5027584;28;20040;-90
2024/01/15 06:33:24;;;;;;;49.13;19.67;;;;;;;;;;5012650;28;20276;-91
2024/01/15 06:35:51;;;;;;;39.30;18.93;;;;;;;;;;5010460;28;21362;-86
2024/01/15 06:38:17;;;;;;;38.87;18.13;;;;;;;;;;5009022;28;20346;-90
2024/01/15 06:40:45;;;;;;;47.40;19.97;;;;;;;;;;5013995;28;20298;-88
2024/01/15 06:43:11;;;;;;;45.80;19.87;;;;;;;;;;5009835;28;20910;-86
2024/01/15 06:45:37;;;;;;;50.00;20.30;;;;;;;;;;5029794;28;20392;-91
2024/01/15 06:48:04;;;;;;;45.53;20.03;;;;;;;;;;5028376;28;20273;-90
2024/01/15 06:50:30;;;;;;;48.50;20.43;;;;;;;;;;5012716;28;20287;-90
2024/01/15 06:52:56;;;;;;;54.93;20.33;;;;;;;;;;5011893;28;21573;-91
2024/01/15 06:55:25;;;;;;;46.13;20.33;;;;;;;;;;5014925;28;20439;-89
2024/01/15 06:57:51;;;;;;;50.47;19.97;;;;;;;;;;5028500;28;20370;-90
2024/01/15 07:00:17;;;;;;;52.33;20.73;;;;;;;;;;5010961;28;20304;-91
2024/01/15 07:02:43;;;;;;;48.63;20.53;;;;;;;;;;5028250;28;20087;-91
2024/01/15 07:05:12;;;;;;;44.40;20.93;;;;;;;;;;5013663;28;20367;-89
2024/01/15 07:07:38;;;;;;;50.60;19.93;;;;;;;;;;5010112;28;20122;-92
2024/01/15 07:10:04;;;;;;;53.23;21.23;;;;;;;;;;5010443;28;20312;-89
2024/01/15 07:12:30;;;;;;;42.53;20.83;;;;;;;;;;5010734;28;20037;-88
2024/01/15 07:14:59;;;;;;;47.73;19.60;;;;;;;;;;5018042;28;20303;-89
2024/01/15 07:17:27;;;;;;;42.90;19.10;;;;;;;;;;5029217;28;20323;-91
2024/01/15 07:19:53;;;;;;;45.57;19.70;;;;;;;;;;5012846;28;20390;-93
2024/01/15 07:22:19;;;;;;;47.10;19.13;;;;;;;;;;5013279;28;20670;-90
2024/01/15 07:24:45;;;;;;;40.03;17.83;;;;;;;;;;5014686;28;20489;-90
2024/01/15 07:27:11;;;;;;;40.57;17.80;;;;;;;;;;5012626;28;20300;-90
2024/01/15 07:29:37;;;;;;;42.77;19.13;;;;;;;;;;5011311;28;20589;-87
2024/01/15 07:32:04;;;;;;;41.67;18.93;;;;;;;;;;5014854;28;20762;-92
2024/01/15 07:34:30;;;;;;;51.37;20.27;;;;;;;;;;5012736;28;20936;-92
2024/01/15 07:36:57;;;;;;;41.73;18.33;;;;;;;;;;5013029;28;20284;-89
2024/01/15 07:39:26;;;;;;;45.57;20.20;;;;;;;;;;5028319;28;20280;-88
2024/01/15 07:41:52;;;;;;;55.53;21.63;;;;;;;;;;5028675;28;20275;-91
2024/01/15 07:44:18;;;;;;;44.20;19.70;;;;;;;;;;5011546;28;20513;-89
2024/01/15 07:46:45;;;;;;;42.00;20.20;;;;;;;;;;5010600;28;20288;-88
2024/01/15 07:49:12;;;;;;;45.07;19.60;;;;;;;;;;5010354;28;20445;-89
2024/01/15 07:51:38;;;;;;;43.93;20.50;;;;;;;;;;5011124;28;20281;-87
2024/01/15 07:54:04;;;;;;;43.43;19.13;;;;;;;;;;5009953;28;20281;-92
2024/01/15 07:56:30;;;;;;;48.10;21.40;;;;;;;;;;5013103;28;20140;-90
2024/01/15 07:58:56;;;;;;;44.13;20.70;;;;;;;;;;5009976;28;20296;-91
2024/01/15 08:01:25;;;;;;;47.07;19.87;;;;;;;;;;5013063;28;20040;-92
2024/01/15 08:03:52;;;;;;;57.10;22.50;;;;;;;;;;5007581;28;20283;-90
2024/01/15 08:06:18;;;;;;;49.53;22.17;;;;;;;;;;5028711;28;20735;-87
2024/01/15 08:08:44;;;;;;;53.87;21.77;;;;;;;;;;5009651;28;20272;-91
2024/01/15 08:11:10;;;;;;;60.17;23.70;;;;;;;;;;5010453;28;20280;-87
2024/01/15 08:13:38;;;;;;;52.50;21.53;;;;;;;;;;5013647;28;20291;-88
2024/01/15 08:16:04;;;;;;;53.03;22.60;;;;;;;;;;5013343;28;20033;-85
2024/01/15 08:18:30;;;;;;;54.17;23.40;;;;;;;;;;5009833;28;20513;-91
2024/01/15 08:20:59;;;;;;;54.23;23.53;;;;;;;;;;5012499;28;20284;-87
2024/01/15 08:23:27;;;;;;;49.67;22.60;;;;;;;;;;5026444;28;20030;-91
2024/01/15 08:25:53;;;;;;;46.23;21.97;;;;;;;;;;5030083;28;20284;-90
2024/01/15 08:28:19;;;;;;;43.10;19.93;;;;;;;;;;5012023;28;20351;-92
2024/01/15 08:30:45;;;;;;;50.67;22.57;;;;;;;;;;5014307;28;20030;-87
2024/01/15 08:33:12;;;;;;;53.53;22.80;;;;;;;;;;5026744;28;20033;-87
2024/01/15 08:35:38;;;;;;;47.90;21.37;;;;;;;;;;5013927;28;20291;-90
2024/01/15 08:38:05;;;;;;;45.23;21.20;;;;;;;;;;5013164;28;20276;-88
2024/01/15 08:40:31;;;;;;;46.57;19.63;;;;;;;;;;5009681;28;20928;-90
2024/01/15 08:42:57;;;;;;;38.30;19.93;;;;;;;;;;5010304;28;20415;-87
2024/01/15 08:45:26;;;;;;;38.53;20.10;;;;;;;;;;5006429;28;20352;-93
2024/01/15 08:47:52;;;;;;;46.50;20.97;;;;;;;;;;5010574;28;20048;-88
2024/01/15 08:50:18;;;;;;;52.90;21.67;;;;;;;;;;5010668;28;20280;-89
2024/01/15 08:52:46;;;;;;;48.33;21.17;;;;;;;;;;5011392;28;20036;-90
2024/01/15 08:55:13;;;;;;;43.83;20.30;;;;;;;;;;5023521;28;20362;-86
2024/01/15 08:57:39;;;;;;;47.67;20.83;;;;;;;;;;5009730;28;20280;-91
2024/01/15 09:00:08;;;;;;;46.40;22.07;;;;;;;;;;5010940;28;20285;-92
2024/01/15 09:02:35;;;;;;;39.67;19.67;;;;;;;;;;5012174;28;20728;-90
2024/01/15 09:05:04;;;;;;;41.03;19.43;;;;;;;;;;5012298;28;20291;-89
2024/01/15 09:07:32;;;;;;;40.23;19.83;;;;;;;;;;5010620;28;20371;-89
2024/01/15 09:09:59;;;;;;;41.77;21.10;;;;;;;;;;5010313;28;20276;-89
2024/01/15 09:12:25;;;;;;;41.90;19.37;;;;;;;;;;5025464;28;20322;-86
2024/01/15 09:14:51;;;;;;;35.93;17.00;;;;;;;;;;5025281;28;20280;-90
2024/01/15 09:17:17;;;;;;;38.43;19.67;;;;;;;;;;5007818;28;20336;-90
2024/01/15 09:19:44;;;;;;;46.10;18.37;;;;;;;;;;5011521;28;20295;-89
2024/01/15 09:22:10;;;;;;;49.07;19.77;;;;;;;;;;5009736;28;20329;-93
2024/01/15 09:24:36;;;;;;;39.97;19.20;;;;;;;;;;5012742;28;20279;-91
2024/01/15 09:27:05;;;;;;;38.27;19.00;;;;;;;;;;5012666;28;20382;-88
2024/01/15 09:29:31;;;;;;;31.40;16.07;;;;;;;;;;5008114;28;22080;-92
2024/01/15 09:31:57;;;;;;;34.83;16.20;;;;;;;;;;5009439;28;20310;-93
2024/01/15 09:34:23;;;;;;;31.27;14.93;;;;;;;;;;5015556;28;20280;-89
2024/01/15 09:36:49;;;;;;;38.90;16.37;;;;;;;;;;5010476;28;20773;-92
2024/01/15 09:39:15;;;;;;;31.80;16.33;;;;;;;;;;5028226;28;20105;-91
2024/01/15 09:41:41;;;;;;;23.67;12.03;;;;;;;;;;5022506;28;20068;-91
2024/01/15 09:44:08;;;;;;;25.13;11.63;;;;;;;;;;5014922;28;20203;-90
2024/01/15 09:46:35;;;;;;;19.47;11.37;;;;;;;;;;5024698;28;20363;-92
2024/01/15 09:49:04;;;;;;;22.30;10.10;;;;;;;;;;5007100;28;20803;-89
2024/01/15 09:51:32;;;;;;;22.67;9.97;;;;;;;;;;5005073;28;20372;-85
2024/01/15 09:53:58;;;;;;;20.60;10.57;;;;;;;;;;5010352;28;20355;-87
2024/01/15 09:56:24;;;;;;;22.93;12.03;;;;;;;;;;5024053;28;20279;-87
2024/01/15 09:58:54;;;;;;;21.77;10.80;;;;;;;;;;5007981;28;20440;-92
2024/01/15 10:01:23;;;;;;;23.77;10.97;;;;;;;;;;5028273;28;20632;-91
2024/01/15 10:03:50;;;;;;;22.60;10.63;;;;;;;;;;5009674;28;20372;-90
2024/01/15 10:06:19;;;;;;;22.67;10.93;;;;;;;;;;5008509;28;20295;-92
2024/01/15 10:08:52;;;;;;;27.30;11.93;;;;;;;;;;5012474;28;20295;-90
2024/01/15 10:11:18;;;;;;;20.00;9.88;;;;;;;;;;5008100;28;20353;-91
2024/01/15 10:13:44;;;;;;;20.23;10.63;;;;;;;;;;5013041;28;20316;-91
2024/01/15 10:16:11;;;;;;;18.23;9.47;;;;;;;;;;5029958;28;20287;-89
2024/01/15 10:18:39;;;;;;;22.27;9.03;;;;;;;;;;5007424;28;20279;-92
2024/01/15 10:21:06;;;;;;;23.97;10.07;;;;;;;;;;5010868;28;20284;-83
2024/01/15 10:23:32;;;;;;;18.13;9.33;;;;;;;;;;5011129;28;20276;-89
2024/01/15 10:25:58;;;;;;;18.97;8.83;;;;;;;;;;4994663;28;20368;-87
2024/01/15 10:28:26;;;;;;;13.37;8.00;;;;;;;;;;5010750;28;20359;-91
2024/01/15 10:30:53;;;;;;;19.13;9.43;;;;;;;;;;5008649;28;20034;-88
2024/01/15 10:33:25;;;;;;;16.70;8.53;;;;;;;;;;5029036;28;20324;-90
2024/01/15 10:35:51;;;;;;;15.02;7.65;;;;;;;;;;5015607;28;20283;-92
2024/01/15 10:38:19;;;;;;;16.00;8.53;;;;;;;;;;5009352;28;20089;-91
2024/01/15 10:40:48;;;;;;;16.60;8.07;;;;;;;;;;5027748;28;20280;-89
2024/01/15 10:43:20;;;;;;;15.53;8.17;;;;;;;;;;5021920;28;20296;-92
2024/01/15 10:45:46;;;;;;;15.95;7.28;;;;;;;;;;5003802;28;20324;-92
2024/01/15 10:48:19;;;;;;;12.93;7.43;;;;;;;;;;5009439;28;20036;-92
2024/01/15 10:50:45;;;;;;;12.75;7.30;;;;;;;;;;5021021;28;20264;-93
2024/01/15 10:53:15;;;;;;;14.10;6.50;;;;;;;;;;5021628;28;20036;-93
2024/01/15 10:55:42;;;;;;;14.23;8.13;;;;;;;;;;5036630;28;20264;-89
2024/01/15 10:58:08;;;;;;;10.87;6.27;;;;;;;;;;5033914;28;20268;-93
2024/01/15 11:00:35;;;;;;;10.47;6.37;;;;;;;;;;5018745;28;20268;-92
2024/01/15 11:03:08;;;;;;;12.10;6.07;;;;;;;;;;5018539;28;20276;-93
2024/01/15 11:05:35;;;;;;;11.47;5.27;;;;;;;;;;5018439;28;20312;-91
2024/01/15 11:08:01;;;;;;;9.03;5.37;;;;;;;;;;5034662;28;20716;-91
2024/01/15 11:10:42;;;;;;;12.73;6.37;;;;;;;;;;5032359;28;20280;-92
2024/01/15 11:13:37;;;;;;;9.03;5.50;;;;;;;;;;5018925;28;20272;-92
2024/01/15 11:16:07;;;;;;;12.97;5.77;;;;;;;;;;5008142;28;20287;-92
2024/01/15 11:18:36;;;;;;;12.73;5.97;;;;;;;;;;4994486;28;20277;-87
2024/01/15 11:21:16;;;;;;;7.90;5.00;;;;;;;;;;4978493;28;20302;-93
2024/01/15 11:23:56;;;;;;;8.93;5.00;;;;;;;;;;4982368;28;20344;-94
2024/01/15 11:26:31;;;;;;;9.53;5.07;;;;;;;;;;4997983;28;20385;-92
2024/01/15 11:29:00;;;;;;;9.97;5.60;;;;;;;;;;4997975;28;20272;-90
2024/01/15 11:31:30;;;;;;;12.67;6.70;;;;;;;;;;4998437;28;20274;-93
2024/01/15 11:33:59;;;;;;;12.27;7.10;;;;;;;;;;4995039;28;20301;-93
2024/01/15 11:36:44;;;;;;;10.87;6.73;;;;;;;;;;4997995;28;20352;-91
2024/01/15 11:39:28;;;;;;;14.20;8.40;;;;;;;;;;4997732;28;20269;-93
2024/01/15 11:41:57;;;;;;;16.10;8.50;;;;;;;;;;4992351;28;20340;-92
2024/01/15 11:44:23;;;;;;;13.73;8.27;;;;;;;;;;5022353;28;20264;-92
2024/01/15 11:46:58;;;;;;;17.63;9.70;;;;;;;;;;5010830;28;20292;-91
2024/01/15 11:49:49;;;;;;;15.07;8.53;;;;;;;;;;5020112;28;20268;-94
2024/01/15 11:52:19;;;;;;;16.60;9.63;;;;;;;;;;5033004;28;20260;-93
2024/01/15 11:55:08;;;;;;;22.07;10.57;;;;;;;;;;5024041;28;20263;-93
2024/01/15 11:57:41;;;;;;;24.17;11.20;;;;;;;;;;5022970;28;20681;-90
2024/01/15 12:00:07;;;;;;;;;;;;;;;;;;5022762;28;20337;-92
2024/01/15 12:02:35;;;;;;;19.33;10.10;;;;;;;;;;5018274;28;20317;-93
2024/01/15 12:05:01;;;;;;;22.70;10.50;;;;;;;;;;5018336;28;20021;-92
2024/01/15 12:07:28;;;;;;;20.10;11.70;;;;;;;;;;5021201;28;20283;-93
2024/01/15 12:09:53;;;;;;;28.23;14.03;;;;;;;;;;5013714;28;20373;-91
2024/01/15 12:12:25;;;;;;;27.23;12.47;;;;;;;;;;5021543;28;20272;-93
2024/01/15 12:14:51;;;;;;;27.87;12.77;;;;;;;;;;5020214;28;20040;-93
2024/01/15 12:17:19;;;;;;;23.73;12.77;;;;;;;;;;5020797;28;20329;-88
2024/01/15 12:19:47;;;;;;;28.83;12.57;;;;;;;;;;5011586;28;20284;-86
2024/01/15 12:22:13;;;;;;;23.40;12.23;;;;;;;;;;5010179;28;20339;-92
2024/01/15 12:24:39;;;;;;;23.73;12.90;;;;;;;;;;5014156;28;22126;-88
2024/01/15 12:27:05;;;;;;;28.70;13.60;;;;;;;;;;5011489;28;20026;-92
2024/01/15 12:29:31;;;;;;;26.67;12.90;;;;;;;;;;5015504;28;20076;-88
2024/01/15 12:31:58;;;;;;;26.20;12.80;;;;;;;;;;5026736;28;20337;-92
2024/01/15 12:34:24;;;;;;;28.20;12.60;;;;;;;;;;5004287;28;20273;-88
2024/01/15 12:36:50;;;;;;;26.53;11.13;;;;;;;;;;4989713;28;20292;-88
2024/01/15 12:39:18;;;;;;;21.90;11.07;;;;;;;;;;4991170;28;20057;-89
2024/01/15 12:41:44;;;;;;;18.27;9.43;;;;;;;;;;4991138;28;21551;-91
2024/01/15 12:44:11;;;;;;;24.90;9.47;;;;;;;;;;5008008;28;20272;-91
2024/01/15 12:46:37;;;;;;;18.90;8.93;;;;;;;;;;4989750;28;21462;-90
2024/01/15 12:49:04;;;;;;;20.67;8.90;;;;;;;;;;4976940;28;20284;-84
2024/01/15 12:51:34;;;;;;;15.47;7.87;;;;;;;;;;4992872;28;20331;-90
2024/01/15 12:54:01;;;;;;;20.63;7.20;;;;;;;;;;4990996;28;20276;-89
2024/01/15 12:56:27;;;;;;;15.20;7.53;;;;;;;;;;4993552;28;20358;-89
2024/01/15 12:58:52;;;;;;;11.60;6.67;;;;;;;;;;4995964;28;20292;-90
2024/01/15 13:01:18;;;;;;;15.10;6.30;;;;;;;;;;4992699;28;20034;-90
2024/01/15 13:03:44;;;;;;;15.50;6.53;;;;;;;;;;4991997;28;20426;-92
2024/01/15 13:06:13;;;;;;;19.93;5.70;;;;;;;;;;5013202;28;20148;-91
2024/01/15 13:08:39;;;;;;;14.47;6.40;;;;;;;;;;5008826;28;20284;-92
2024/01/15 13:11:05;;;;;;;19.37;6.33;;;;;;;;;;5011615;28;20719;-91
2024/01/15 13:13:37;;;;;;;11.73;5.63;;;;;;;;;;5011655;28;20029;-84
2024/01/15 13:16:03;;;;;;;22.55;6.38;;;;;;;;;;5012840;28;20275;-86
2024/01/15 13:18:30;;;;;;;12.73;5.10;;;;;;;;;;5024922;28;20030;-92
2024/01/15 13:21:00;;;;;;;14.97;6.20;;;;;;;;;;5010945;28;20281;-91
2024/01/15 13:23:26;;;;;;;11.63;5.43;;;;;;;;;;5027380;28;20606;-89
2024/01/15 13:25:52;;;;;;;12.63;5.20;;;;;;;;;;5011028;28;20298;-93
2024/01/15 13:28:18;;;;;;;10.60;4.63;;;;;;;;;;5008934;28;20041;-90
2024/01/15 13:30:47;;;;;;;10.10;4.00;;;;;;;;;;5008936;28;20021;-88
2024/01/15 13:33:15;;;;;;;13.83;3.70;;;;;;;;;;5025243;28;20085;-90
2024/01/15 13:35:44;;;;;;;7.80;3.23;;;;;;;;;;5007230;28;20288;-88
2024/01/15 13:38:11;;;;;;;16.73;3.70;;;;;;;;;;5010790;28;20316;-89
2024/01/15 13:40:37;;;;;;;16.50;3.83;;;;;;;;;;5010247;28;20640;-87
2024/01/15 13:43:06;;;;;;;8.77;3.40;;;;;;;;;;5011474;28;20342;-88
2024/01/15 13:45:34;;;;;;;6.80;4.17;;;;;;;;;;5008747;28;20030;-88
2024/01/15 13:48:00;;;;;;;5.17;3.30;;;;;;;;;;5009015;28;20355;-89
2024/01/15 13:50:28;;;;;;;12.83;3.10;;;;;;;;;;5013306;28;20273;-87
2024/01/15 13:52:54;;;;;;;5.93;3.33;;;;;;;;;;5012159;28;20949;-89
2024/01/15 13:55:20;;;;;;;6.03;3.03;;;;;;;;;;5010311;28;20272;-90
2024/01/15 13:57:46;;;;;;;3.50;2.33;;;;;;;;;;5009729;28;20036;-90
2024/01/15 14:00:17;;;;;;;3.83;2.07;;;;;;;;;;5007923;28;20351;-87
2024/01/15 14:02:43;;;;;;;5.90;2.07;;;;;;;;;;5009966;28;20042;-90
2024/01/15 14:05:12;;;;;;;5.33;2.10;;;;;;;;;;5008750;28;20356;-87
2024/01/15 14:07:39;;;;;;;4.27;1.93;;;;;;;;;;5026357;28;20036;-91
2024/01/15 14:10:05;;;;;;;5.87;2.40;;;;;;;;;;5010092;28;20268;-90
2024/01/15 14:12:31;;;;;;;5.10;1.73;;;;;;;;;;5027051;28;20284;-92
2024/01/15 14:14:57;;;;;;;6.27;1.97;;;;;;;;;;5009283;28;20346;-92
2024/01/15 14:17:23;;;;;;;2.67;2.10;;;;;;;;;;5007266;28;20304;-90
2024/01/15 14:19:49;;;;;;;6.03;2.10;;;;;;;;;;5010112;28;20027;-90